sensor_id;sensor_type;location;lat;lon;timestamp;P1;durP1;ratioP1;P2;durP2;ratioP2
17193;SDS011;8713;48.388;10.928;2022-10-23T03:56:24;2.67;;;1.80;;
17193;SDS011;8713;48.388;10.928;2022-10-23T03:57:33;2.90;;;1.60;;
17193;SDS011;8713;48.388;10.928;2022-10-23T03:58:43;2.22;;;1.60;;
17193;SDS011;8713;48.388;10.928;2022-10-23T03:59:52;1.52;;;1.40;;
17193;SDS011;8713;48.388;10.928;2022-10-23T04:01:02;2.85;;;1.58;;
17193;SDS011;8713;48.388;10.928;2022-10-23T04:02:11;2.30;;;1.60;;
17193;SDS011;8713;48.388;10.928;2022-10-23T04:03:21;2.35;;;1.50;;
17193;SDS011;8713;48.388;10.928;2022-10-23T04:04:30;2.45;;;1.75;;
17193;SDS011;8713;48.388;10.928;2022-10-23T04:05:40;1.92;;;1.40;;
17193;SDS011;8713;48.388;10.928;2022-10-23T04:06:50;2.92;;;1.70;;
17193;SDS011;8713;48.388;10.928;2022-10-23T04:08:01;1.73;;;1.45;;
17193;SDS011;8713;48.388;10.928;2022-10-23T04:09:10;1.73;;;1.40;;
17193;SDS011;8713;48.388;10.928;2022-10-23T04:10:20;2.80;;;1.50;;
17193;SDS011;8713;48.388;10.928;2022-10-23T04:11:29;3.17;;;1.48;;
17193;SDS011;8713;48.388;10.928;2022-10-23T04:12:40;2.33;;;1.55;;
17193;SDS011;8713;48.388;10.928;2022-10-23T04:13:49;1.95;;;1.60;;
17193;SDS011;8713;48.388;10.928;2022-10-23T04:14:59;3.58;;;1.70;;
17193;SDS011;8713;48.388;10.928;2022-10-23T04:16:08;1.63;;;1.38;;
17193;SDS011;8713;48.388;10.928;2022-10-23T04:17:18;2.05;;;1.70;;
17193;SDS011;8713;48.388;10.928;2022-10-23T04:18:27;2.47;;;1.67;;
17193;SDS011;8713;48.388;10.928;2022-10-23T04:19:36;3.22;;;1.77;;
17193;SDS011;8713;48.388;10.928;2022-10-23T04:20:46;3.72;;;1.70;;
17193;SDS011;8713;48.388;10.928;2022-10-23T04:21:57;1.85;;;1.40;;
17193;SDS011;8713;48.388;10.928;2022-10-23T04:23:06;2.50;;;1.60;;
17193;SDS011;8713;48.388;10.928;2022-10-23T04:24:16;2.22;;;1.70;;
17193;SDS011;8713;48.388;10.928;2022-10-23T04:25:26;1.90;;;1.60;;
17193;SDS011;8713;48.388;10.928;2022-10-23T04:26:35;1.45;;;1.35;;
17193;SDS011;8713;48.388;10.928;2022-10-23T04:27:44;3.17;;;1.40;;
17193;SDS011;8713;48.388;10.928;2022-10-23T04:28:54;1.95;;;1.70;;
17193;SDS011;8713;48.388;10.928;2022-10-23T04:30:03;1.80;;;1.45;;
17193;SDS011;8713;48.388;10.928;2022-10-23T04:31:13;4.47;;;1.95;;
17193;SDS011;8713;48.388;10.928;2022-10-23T04:32:25;3.22;;;1.70;;
17193;SDS011;8713;48.388;10.928;2022-10-23T04:33:34;2.38;;;1.75;;
17193;SDS011;8713;48.388;10.928;2022-10-23T04:34:44;1.85;;;1.52;;
17193;SDS011;8713;48.388;10.928;2022-10-23T04:35:53;1.80;;;1.50;;
17193;SDS011;8713;48.388;10.928;2022-10-23T04:37:03;1.95;;;1.52;;
17193;SDS011;8713;48.388;10.928;2022-10-23T04:38:12;2.42;;;1.60;;
17193;SDS011;8713;48.388;10.928;2022-10-23T04:39:22;2.78;;;1.38;;
17193;SDS011;8713;48.388;10.928;2022-10-23T04:40:31;2.08;;;1.60;;
17193;SDS011;8713;48.388;10.928;2022-10-23T04:41:41;2.65;;;1.52;;
17193;SDS011;8713;48.388;10.928;2022-10-23T04:42:51;3.22;;;1.77;;
17193;SDS011;8713;48.388;10.928;2022-10-23T04:44:00;5.60;;;1.40;;
17193;SDS011;8713;48.388;10.928;2022-10-23T04:45:10;1.85;;;1.48;;
17193;SDS011;8713;48.388;10.928;2022-10-23T04:46:19;1.83;;;1.40;;
17193;SDS011;8713;48.388;10.928;2022-10-23T04:47:30;1.80;;;1.50;;
17193;SDS011;8713;48.388;10.928;2022-10-23T04:48:41;3.17;;;1.50;;
17193;SDS011;8713;48.388;10.928;2022-10-23T04:50:17;2.70;;;1.20;;
17193;SDS011;8713;48.388;10.928;2022-10-23T04:51:50;2.53;;;1.20;;
17193;SDS011;8713;48.388;10.928;2022-10-23T04:53:17;1.48;;;1.30;;
17193;SDS011;8713;48.388;10.928;2022-10-23T04:54:45;2.10;;;1.40;;
17193;SDS011;8713;48.388;10.928;2022-10-23T04:56:21;3.17;;;1.50;;
17193;SDS011;8713;48.388;10.928;2022-10-23T04:57:33;2.13;;;1.50;;
17193;SDS011;8713;48.388;10.928;2022-10-23T04:58:46;1.88;;;1.20;;
17193;SDS011;8713;48.388;10.928;2022-10-23T04:59:55;1.67;;;1.30;;
17193;SDS011;8713;48.388;10.928;2022-10-23T05:01:04;2.08;;;1.50;;
17193;SDS011;8713;48.388;10.928;2022-10-23T05:02:16;1.88;;;1.40;;
17193;SDS011;8713;48.388;10.928;2022-10-23T05:03:26;3.38;;;1.30;;
17193;SDS011;8713;48.388;10.928;2022-10-23T05:04:35;1.83;;;1.40;;
17193;SDS011;8713;48.388;10.928;2022-10-23T05:06:04;1.50;;;1.30;;
17193;SDS011;8713;48.388;10.928;2022-10-23T05:07:52;2.00;;;1.50;;
17193;SDS011;8713;48.388;10.928;2022-10-23T05:09:10;2.00;;;1.40;;
17193;SDS011;8713;48.388;10.928;2022-10-23T05:10:34;2.97;;;1.40;;
17193;SDS011;8713;48.388;10.928;2022-10-23T05:11:50;2.45;;;1.50;;
17193;SDS011;8713;48.388;10.928;2022-10-23T05:13:00;2.20;;;1.50;;
17193;SDS011;8713;48.388;10.928;2022-10-23T05:14:11;1.63;;;1.52;;
17193;SDS011;8713;48.388;10.928;2022-10-23T05:15:22;2.15;;;1.52;;
17193;SDS011;8713;48.388;10.928;2022-10-23T05:17:57;1.98;;;1.30;;
17193;SDS011;8713;48.388;10.928;2022-10-23T05:19:16;1.92;;;1.33;;
17193;SDS011;8713;48.388;10.928;2022-10-23T05:20:32;1.88;;;1.60;;
17193;SDS011;8713;48.388;10.928;2022-10-23T05:21:43;1.63;;;1.27;;
17193;SDS011;8713;48.388;10.928;2022-10-23T05:22:53;4.50;;;1.70;;
17193;SDS011;8713;48.388;10.928;2022-10-23T05:24:06;1.88;;;1.33;;
17193;SDS011;8713;48.388;10.928;2022-10-23T05:25:16;2.25;;;1.40;;
17193;SDS011;8713;48.388;10.928;2022-10-23T05:26:33;2.60;;;1.40;;
17193;SDS011;8713;48.388;10.928;2022-10-23T05:27:48;1.70;;;1.30;;
17193;SDS011;8713;48.388;10.928;2022-10-23T05:28:58;2.33;;;1.38;;
17193;SDS011;8713;48.388;10.928;2022-10-23T05:30:08;2.13;;;1.50;;
17193;SDS011;8713;48.388;10.928;2022-10-23T05:31:19;2.10;;;1.40;;
17193;SDS011;8713;48.388;10.928;2022-10-23T05:32:33;1.52;;;1.38;;
17193;SDS011;8713;48.388;10.928;2022-10-23T05:33:42;2.22;;;1.55;;
17193;SDS011;8713;48.388;10.928;2022-10-23T05:34:52;1.40;;;1.20;;
17193;SDS011;8713;48.388;10.928;2022-10-23T05:36:02;1.40;;;1.20;;
17193;SDS011;8713;48.388;10.928;2022-10-23T05:37:13;1.90;;;1.45;;
17193;SDS011;8713;48.388;10.928;2022-10-23T05:38:23;1.75;;;1.50;;
17193;SDS011;8713;48.388;10.928;2022-10-23T05:39:33;1.40;;;1.30;;
17193;SDS011;8713;48.388;10.928;2022-10-23T05:40:44;2.63;;;1.33;;
17193;SDS011;8713;48.388;10.928;2022-10-23T05:41:59;1.90;;;1.35;;
17193;SDS011;8713;48.388;10.928;2022-10-23T05:43:08;2.55;;;1.25;;
17193;SDS011;8713;48.388;10.928;2022-10-23T05:44:53;2.60;;;1.55;;
17193;SDS011;8713;48.388;10.928;2022-10-23T05:46:25;2.33;;;1.40;;
17193;SDS011;8713;48.388;10.928;2022-10-23T05:47:57;2.15;;;1.15;;
17193;SDS011;8713;48.388;10.928;2022-10-23T05:49:28;2.80;;;1.58;;
17193;SDS011;8713;48.388;10.928;2022-10-23T05:51:16;2.40;;;1.88;;
17193;SDS011;8713;48.388;10.928;2022-10-23T05:52:47;3.53;;;1.80;;
17193;SDS011;8713;48.388;10.928;2022-10-23T05:54:32;2.90;;;1.77;;
17193;SDS011;8713;48.388;10.928;2022-10-23T05:56:03;3.80;;;1.50;;
17193;SDS011;8713;48.388;10.928;2022-10-23T05:57:26;4.05;;;1.40;;
17193;SDS011;8713;48.388;10.928;2022-10-23T05:58:36;2.95;;;1.30;;
17193;SDS011;8713;48.388;10.928;2022-10-23T06:00:00;4.50;;;1.67;;
17193;SDS011;8713;48.388;10.928;2022-10-23T06:01:25;2.63;;;1.40;;
17193;SDS011;8713;48.388;10.928;2022-10-23T06:02:42;1.42;;;1.33;;
17193;SDS011;8713;48.388;10.928;2022-10-23T06:04:08;2.00;;;1.40;;
17193;SDS011;8713;48.388;10.928;2022-10-23T06:05:37;4.22;;;1.35;;
17193;SDS011;8713;48.388;10.928;2022-10-23T06:07:02;1.90;;;1.20;;
17193;SDS011;8713;48.388;10.928;2022-10-23T06:08:12;1.42;;;1.00;;
17193;SDS011;8713;48.388;10.928;2022-10-23T06:09:22;1.65;;;1.30;;
17193;SDS011;8713;48.388;10.928;2022-10-23T06:10:36;1.02;;;0.98;;
17193;SDS011;8713;48.388;10.928;2022-10-23T06:11:48;2.97;;;1.15;;
17193;SDS011;8713;48.388;10.928;2022-10-23T06:13:02;1.83;;;1.20;;
17193;SDS011;8713;48.388;10.928;2022-10-23T06:14:12;2.53;;;1.33;;
17193;SDS011;8713;48.388;10.928;2022-10-23T06:15:22;2.72;;;1.40;;
17193;SDS011;8713;48.388;10.928;2022-10-23T06:16:46;2.08;;;1.10;;
17193;SDS011;8713;48.388;10.928;2022-10-23T06:17:58;1.85;;;1.30;;
17193;SDS011;8713;48.388;10.928;2022-10-23T06:19:15;1.30;;;1.20;;
17193;SDS011;8713;48.388;10.928;2022-10-23T06:20:25;1.83;;;1.20;;
17193;SDS011;8713;48.388;10.928;2022-10-23T06:21:44;3.05;;;1.20;;
17193;SDS011;8713;48.388;10.928;2022-10-23T06:22:55;2.00;;;1.40;;
17193;SDS011;8713;48.388;10.928;2022-10-23T06:24:28;3.30;;;1.30;;
17193;SDS011;8713;48.388;10.928;2022-10-23T06:25:49;3.63;;;1.30;;
17193;SDS011;8713;48.388;10.928;2022-10-23T06:27:00;2.33;;;1.08;;
17193;SDS011;8713;48.388;10.928;2022-10-23T06:28:21;1.45;;;1.15;;
17193;SDS011;8713;48.388;10.928;2022-10-23T06:29:30;2.55;;;1.10;;
17193;SDS011;8713;48.388;10.928;2022-10-23T06:30:40;2.60;;;1.50;;
17193;SDS011;8713;48.388;10.928;2022-10-23T06:31:49;2.50;;;1.60;;
17193;SDS011;8713;48.388;10.928;2022-10-23T06:32:59;2.47;;;1.30;;
17193;SDS011;8713;48.388;10.928;2022-10-23T06:34:09;1.55;;;1.30;;
17193;SDS011;8713;48.388;10.928;2022-10-23T06:35:19;2.83;;;1.55;;
17193;SDS011;8713;48.388;10.928;2022-10-23T06:36:29;1.55;;;1.40;;
17193;SDS011;8713;48.388;10.928;2022-10-23T06:37:47;1.70;;;1.50;;
17193;SDS011;8713;48.388;10.928;2022-10-23T06:39:03;2.00;;;1.30;;
17193;SDS011;8713;48.388;10.928;2022-10-23T06:40:32;2.42;;;1.40;;
17193;SDS011;8713;48.388;10.928;2022-10-23T06:41:45;3.95;;;1.63;;
17193;SDS011;8713;48.388;10.928;2022-10-23T06:43:14;4.00;;;1.35;;
17193;SDS011;8713;48.388;10.928;2022-10-23T06:44:39;2.80;;;1.60;;
17193;SDS011;8713;48.388;10.928;2022-10-23T06:45:52;4.03;;;1.67;;
17193;SDS011;8713;48.388;10.928;2022-10-23T06:47:24;1.67;;;1.30;;
17193;SDS011;8713;48.388;10.928;2022-10-23T06:49:13;2.10;;;1.33;;
17193;SDS011;8713;48.388;10.928;2022-10-23T06:50:28;1.17;;;1.00;;
17193;SDS011;8713;48.388;10.928;2022-10-23T06:51:45;1.20;;;1.10;;
17193;SDS011;8713;48.388;10.928;2022-10-23T06:52:56;4.28;;;1.33;;
17193;SDS011;8713;48.388;10.928;2022-10-23T06:54:05;2.25;;;1.33;;
17193;SDS011;8713;48.388;10.928;2022-10-23T06:55:35;3.13;;;1.25;;
17193;SDS011;8713;48.388;10.928;2022-10-23T06:56:45;2.58;;;1.77;;
17193;SDS011;8713;48.388;10.928;2022-10-23T06:57:54;2.58;;;1.70;;
17193;SDS011;8713;48.388;10.928;2022-10-23T06:59:03;2.30;;;1.50;;
17193;SDS011;8713;48.388;10.928;2022-10-23T07:00:15;1.88;;;1.45;;
17193;SDS011;8713;48.388;10.928;2022-10-23T07:01:31;1.98;;;1.60;;
17193;SDS011;8713;48.388;10.928;2022-10-23T07:02:41;2.83;;;1.50;;
17193;SDS011;8713;48.388;10.928;2022-10-23T07:03:50;3.00;;;1.70;;
17193;SDS011;8713;48.388;10.928;2022-10-23T07:05:05;5.05;;;1.70;;
17193;SDS011;8713;48.388;10.928;2022-10-23T07:06:15;2.95;;;1.58;;
17193;SDS011;8713;48.388;10.928;2022-10-23T07:07:25;2.88;;;1.48;;
17193;SDS011;8713;48.388;10.928;2022-10-23T07:08:35;2.53;;;1.40;;
17193;SDS011;8713;48.388;10.928;2022-10-23T07:09:50;2.80;;;1.30;;
17193;SDS011;8713;48.388;10.928;2022-10-23T07:11:06;3.47;;;1.38;;
17193;SDS011;8713;48.388;10.928;2022-10-23T07:12:18;2.50;;;1.40;;
17193;SDS011;8713;48.388;10.928;2022-10-23T07:13:33;2.83;;;1.20;;
17193;SDS011;8713;48.388;10.928;2022-10-23T07:14:57;1.75;;;1.48;;
17193;SDS011;8713;48.388;10.928;2022-10-23T07:16:16;3.17;;;1.40;;
17193;SDS011;8713;48.388;10.928;2022-10-23T07:17:28;4.90;;;1.30;;
17193;SDS011;8713;48.388;10.928;2022-10-23T07:18:37;2.00;;;1.30;;
17193;SDS011;8713;48.388;10.928;2022-10-23T07:20:16;1.40;;;1.30;;
17193;SDS011;8713;48.388;10.928;2022-10-23T07:21:30;1.85;;;1.30;;
17193;SDS011;8713;48.388;10.928;2022-10-23T07:23:02;2.85;;;1.55;;
17193;SDS011;8713;48.388;10.928;2022-10-23T07:24:18;2.28;;;1.13;;
17193;SDS011;8713;48.388;10.928;2022-10-23T07:25:27;2.75;;;1.33;;
17193;SDS011;8713;48.388;10.928;2022-10-23T07:26:37;2.15;;;1.40;;
17193;SDS011;8713;48.388;10.928;2022-10-23T07:27:46;2.13;;;1.20;;
17193;SDS011;8713;48.388;10.928;2022-10-23T07:28:56;1.60;;;1.23;;
17193;SDS011;8713;48.388;10.928;2022-10-23T07:30:06;1.58;;;1.20;;
17193;SDS011;8713;48.388;10.928;2022-10-23T07:31:24;1.38;;;1.10;;
17193;SDS011;8713;48.388;10.928;2022-10-23T07:32:56;1.40;;;0.90;;
17193;SDS011;8713;48.388;10.928;2022-10-23T07:34:23;1.08;;;0.95;;
17193;SDS011;8713;48.388;10.928;2022-10-23T07:35:46;2.45;;;1.13;;
17193;SDS011;8713;48.388;10.928;2022-10-23T07:37:06;1.85;;;1.15;;
17193;SDS011;8713;48.388;10.928;2022-10-23T07:38:15;1.30;;;1.05;;
17193;SDS011;8713;48.388;10.928;2022-10-23T07:39:28;2.45;;;1.30;;
17193;SDS011;8713;48.388;10.928;2022-10-23T07:40:38;1.73;;;1.20;;
17193;SDS011;8713;48.388;10.928;2022-10-23T07:41:49;1.20;;;1.00;;
17193;SDS011;8713;48.388;10.928;2022-10-23T07:43:00;2.40;;;1.20;;
17193;SDS011;8713;48.388;10.928;2022-10-23T07:44:09;1.55;;;1.05;;
17193;SDS011;8713;48.388;10.928;2022-10-23T07:45:19;3.97;;;1.00;;
17193;SDS011;8713;48.388;10.928;2022-10-23T07:46:29;1.38;;;1.13;;
17193;SDS011;8713;48.388;10.928;2022-10-23T07:47:39;3.40;;;0.90;;
17193;SDS011;8713;48.388;10.928;2022-10-23T07:48:50;2.70;;;1.00;;
17193;SDS011;8713;48.388;10.928;2022-10-23T07:50:00;2.50;;;1.10;;
17193;SDS011;8713;48.388;10.928;2022-10-23T07:51:13;1.15;;;0.95;;
17193;SDS011;8713;48.388;10.928;2022-10-23T07:52:38;2.22;;;0.93;;
17193;SDS011;8713;48.388;10.928;2022-10-23T07:53:59;1.20;;;1.00;;
17193;SDS011;8713;48.388;10.928;2022-10-23T07:55:31;1.15;;;0.82;;
17193;SDS011;8713;48.388;10.928;2022-10-23T07:56:50;1.88;;;1.02;;
17193;SDS011;8713;48.388;10.928;2022-10-23T07:58:18;1.00;;;0.80;;
17193;SDS011;8713;48.388;10.928;2022-10-23T07:59:33;1.20;;;1.10;;
17193;SDS011;8713;48.388;10.928;2022-10-23T08:00:47;1.77;;;1.10;;
17193;SDS011;8713;48.388;10.928;2022-10-23T08:02:12;2.92;;;1.00;;
17193;SDS011;8713;48.388;10.928;2022-10-23T08:03:27;3.40;;;1.13;;
17193;SDS011;8713;48.388;10.928;2022-10-23T08:04:40;2.55;;;1.23;;
17193;SDS011;8713;48.388;10.928;2022-10-23T08:06:03;4.18;;;1.25;;
17193;SDS011;8713;48.388;10.928;2022-10-23T08:07:13;3.28;;;1.00;;
17193;SDS011;8713;48.388;10.928;2022-10-23T08:08:25;1.52;;;0.90;;
17193;SDS011;8713;48.388;10.928;2022-10-23T08:09:38;3.03;;;1.00;;
17193;SDS011;8713;48.388;10.928;2022-10-23T08:10:48;1.40;;;1.13;;
17193;SDS011;8713;48.388;10.928;2022-10-23T08:12:05;1.48;;;1.08;;
17193;SDS011;8713;48.388;10.928;2022-10-23T08:13:15;1.50;;;1.10;;
17193;SDS011;8713;48.388;10.928;2022-10-23T08:14:38;1.25;;;1.00;;
17193;SDS011;8713;48.388;10.928;2022-10-23T08:15:49;1.92;;;1.10;;
17193;SDS011;8713;48.388;10.928;2022-10-23T08:17:29;1.42;;;0.93;;
17193;SDS011;8713;48.388;10.928;2022-10-23T08:18:48;2.00;;;0.90;;
17193;SDS011;8713;48.388;10.928;2022-10-23T08:19:58;2.20;;;0.80;;
17193;SDS011;8713;48.388;10.928;2022-10-23T08:21:13;1.02;;;0.90;;
17193;SDS011;8713;48.388;10.928;2022-10-23T08:22:22;1.80;;;0.80;;
17193;SDS011;8713;48.388;10.928;2022-10-23T08:23:32;1.17;;;0.90;;
17193;SDS011;8713;48.388;10.928;2022-10-23T08:24:41;3.42;;;1.10;;
17193;SDS011;8713;48.388;10.928;2022-10-23T08:25:55;2.35;;;0.90;;
17193;SDS011;8713;48.388;10.928;2022-10-23T08:27:12;3.10;;;0.98;;
17193;SDS011;8713;48.388;10.928;2022-10-23T08:28:26;1.25;;;1.00;;
17193;SDS011;8713;48.388;10.928;2022-10-23T08:29:38;3.13;;;1.95;;
17193;SDS011;8713;48.388;10.928;2022-10-23T08:30:47;2.00;;;1.00;;
17193;SDS011;8713;48.388;10.928;2022-10-23T08:31:56;1.67;;;0.98;;
17193;SDS011;8713;48.388;10.928;2022-10-23T08:33:09;1.38;;;0.90;;
17193;SDS011;8713;48.388;10.928;2022-10-23T08:34:19;2.03;;;0.95;;
17193;SDS011;8713;48.388;10.928;2022-10-23T08:35:35;1.75;;;0.95;;
17193;SDS011;8713;48.388;10.928;2022-10-23T08:36:45;1.40;;;0.80;;
17193;SDS011;8713;48.388;10.928;2022-10-23T08:37:56;2.22;;;0.75;;
17193;SDS011;8713;48.388;10.928;2022-10-23T08:39:07;2.55;;;0.98;;
17193;SDS011;8713;48.388;10.928;2022-10-23T08:40:18;1.38;;;0.82;;
17193;SDS011;8713;48.388;10.928;2022-10-23T08:41:50;1.05;;;0.90;;
17193;SDS011;8713;48.388;10.928;2022-10-23T08:45:57;3.40;;;1.02;;
17193;SDS011;8713;48.388;10.928;2022-10-23T08:47:35;2.10;;;0.90;;
17193;SDS011;8713;48.388;10.928;2022-10-23T08:49:14;2.22;;;1.00;;
17193;SDS011;8713;48.388;10.928;2022-10-23T08:50:51;0.85;;;0.77;;
17193;SDS011;8713;48.388;10.928;2022-10-23T08:52:06;1.10;;;0.90;;
17193;SDS011;8713;48.388;10.928;2022-10-23T08:53:49;0.90;;;0.70;;
17193;SDS011;8713;48.388;10.928;2022-10-23T08:55:13;3.03;;;0.73;;
17193;SDS011;8713;48.388;10.928;2022-10-23T08:56:36;1.45;;;1.05;;
17193;SDS011;8713;48.388;10.928;2022-10-23T08:58:05;1.90;;;1.00;;
17193;SDS011;8713;48.388;10.928;2022-10-23T09:00:54;1.38;;;0.90;;
17193;SDS011;8713;48.388;10.928;2022-10-23T09:02:10;1.05;;;0.68;;
17193;SDS011;8713;48.388;10.928;2022-10-23T09:03:26;1.80;;;0.65;;
17193;SDS011;8713;48.388;10.928;2022-10-23T09:04:35;1.38;;;0.90;;
17193;SDS011;8713;48.388;10.928;2022-10-23T09:08:55;1.88;;;0.80;;
17193;SDS011;8713;48.388;10.928;2022-10-23T09:12:14;0.60;;;0.60;;
17193;SDS011;8713;48.388;10.928;2022-10-23T09:13:41;2.35;;;0.60;;
17193;SDS011;8713;48.388;10.928;2022-10-23T09:18:16;1.92;;;0.60;;
17193;SDS011;8713;48.388;10.928;2022-10-23T09:19:26;1.58;;;0.70;;
17193;SDS011;8713;48.388;10.928;2022-10-23T09:20:38;1.25;;;0.80;;
17193;SDS011;8713;48.388;10.928;2022-10-23T09:21:50;1.10;;;0.60;;
17193;SDS011;8713;48.388;10.928;2022-10-23T09:23:00;2.80;;;0.70;;
17193;SDS011;8713;48.388;10.928;2022-10-23T09:24:13;0.75;;;0.68;;
17193;SDS011;8713;48.388;10.928;2022-10-23T09:25:30;0.95;;;0.60;;
17193;SDS011;8713;48.388;10.928;2022-10-23T09:26:45;1.40;;;0.70;;
17193;SDS011;8713;48.388;10.928;2022-10-23T09:27:59;1.52;;;0.70;;
17193;SDS011;8713;48.388;10.928;2022-10-23T09:29:29;2.00;;;0.80;;
17193;SDS011;8713;48.388;10.928;2022-10-23T09:30:43;5.75;;;0.80;;
17193;SDS011;8713;48.388;10.928;2022-10-23T09:31:57;0.88;;;0.80;;
17193;SDS011;8713;48.388;10.928;2022-10-23T09:34:30;1.30;;;0.70;;
17193;SDS011;8713;48.388;10.928;2022-10-23T09:35:58;1.27;;;0.75;;
17193;SDS011;8713;48.388;10.928;2022-10-23T09:37:32;1.08;;;0.70;;
17193;SDS011;8713;48.388;10.928;2022-10-23T09:38:48;2.95;;;0.80;;
17193;SDS011;8713;48.388;10.928;2022-10-23T09:41:35;1.20;;;0.70;;
17193;SDS011;8713;48.388;10.928;2022-10-23T09:42:54;1.42;;;0.80;;
17193;SDS011;8713;48.388;10.928;2022-10-23T09:44:20;1.08;;;0.70;;
17193;SDS011;8713;48.388;10.928;2022-10-23T09:45:33;2.05;;;0.80;;
17193;SDS011;8713;48.388;10.928;2022-10-23T09:46:47;1.38;;;0.82;;
17193;SDS011;8713;48.388;10.928;2022-10-23T09:48:03;1.00;;;0.70;;
17193;SDS011;8713;48.388;10.928;2022-10-23T09:49:16;2.78;;;0.75;;
17193;SDS011;8713;48.388;10.928;2022-10-23T09:50:41;1.08;;;0.63;;
17193;SDS011;8713;48.388;10.928;2022-10-23T09:56:04;1.83;;;0.80;;
17193;SDS011;8713;48.388;10.928;2022-10-23T09:59:02;1.02;;;0.85;;
17193;SDS011;8713;48.388;10.928;2022-10-23T10:00:20;1.02;;;0.93;;
17193;SDS011;8713;48.388;10.928;2022-10-23T10:01:36;1.33;;;0.70;;
17193;SDS011;8713;48.388;10.928;2022-10-23T10:03:22;3.35;;;0.70;;
17193;SDS011;8713;48.388;10.928;2022-10-23T10:04:49;0.85;;;0.60;;
17193;SDS011;8713;48.388;10.928;2022-10-23T10:06:00;2.28;;;0.70;;
17193;SDS011;8713;48.388;10.928;2022-10-23T10:07:19;2.00;;;0.80;;
17193;SDS011;8713;48.388;10.928;2022-10-23T10:09:53;0.60;;;0.60;;
17193;SDS011;8713;48.388;10.928;2022-10-23T10:13:14;0.68;;;0.60;;
17193;SDS011;8713;48.388;10.928;2022-10-23T10:15:51;0.80;;;0.60;;
17193;SDS011;8713;48.388;10.928;2022-10-23T10:17:30;1.30;;;0.70;;
17193;SDS011;8713;48.388;10.928;2022-10-23T10:18:48;1.88;;;0.52;;
17193;SDS011;8713;48.388;10.928;2022-10-23T10:20:26;3.00;;;0.77;;
17193;SDS011;8713;48.388;10.928;2022-10-23T10:24:54;1.33;;;0.60;;
17193;SDS011;8713;48.388;10.928;2022-10-23T10:34:28;2.17;;;0.70;;
17193;SDS011;8713;48.388;10.928;2022-10-23T10:36:06;2.80;;;0.63;;
17193;SDS011;8713;48.388;10.928;2022-10-23T10:40:37;3.35;;;0.70;;
17193;SDS011;8713;48.388;10.928;2022-10-23T10:43:20;1.30;;;0.50;;
17193;SDS011;8713;48.388;10.928;2022-10-23T10:46:10;1.58;;;0.60;;
17193;SDS011;8713;48.388;10.928;2022-10-23T10:50:05;0.43;;;0.43;;
17193;SDS011;8713;48.388;10.928;2022-10-23T10:53:22;2.05;;;0.70;;
17193;SDS011;8713;48.388;10.928;2022-10-23T10:56:24;0.65;;;0.60;;
17193;SDS011;8713;48.388;10.928;2022-10-23T10:57:43;2.55;;;0.75;;
17193;SDS011;8713;48.388;10.928;2022-10-23T10:59:01;1.42;;;0.60;;
17193;SDS011;8713;48.388;10.928;2022-10-23T11:00:20;1.23;;;0.60;;
17193;SDS011;8713;48.388;10.928;2022-10-23T11:01:35;1.20;;;0.70;;
17193;SDS011;8713;48.388;10.928;2022-10-23T11:02:52;1.17;;;0.65;;
17193;SDS011;8713;48.388;10.928;2022-10-23T11:06:11;2.72;;;0.95;;
17193;SDS011;8713;48.388;10.928;2022-10-23T11:07:24;1.83;;;0.85;;
17193;SDS011;8713;48.388;10.928;2022-10-23T11:08:38;1.13;;;0.65;;
17193;SDS011;8713;48.388;10.928;2022-10-23T11:09:49;1.55;;;0.70;;
17193;SDS011;8713;48.388;10.928;2022-10-23T11:11:43;3.30;;;1.10;;
17193;SDS011;8713;48.388;10.928;2022-10-23T11:12:46;3.35;;;0.68;;
17193;SDS011;8713;48.388;10.928;2022-10-23T11:13:56;0.90;;;0.70;;
17193;SDS011;8713;48.388;10.928;2022-10-23T11:15:16;0.80;;;0.68;;
17193;SDS011;8713;48.388;10.928;2022-10-23T11:16:31;3.15;;;0.70;;
17193;SDS011;8713;48.388;10.928;2022-10-23T11:17:45;0.60;;;0.60;;
17193;SDS011;8713;48.388;10.928;2022-10-23T11:19:09;0.60;;;0.60;;
17193;SDS011;8713;48.388;10.928;2022-10-23T11:20:29;1.65;;;0.68;;
17193;SDS011;8713;48.388;10.928;2022-10-23T11:22:01;0.65;;;0.50;;
17193;SDS011;8713;48.388;10.928;2022-10-23T11:25:25;0.77;;;0.60;;
17193;SDS011;8713;48.388;10.928;2022-10-23T11:33:45;3.75;;;0.70;;
17193;SDS011;8713;48.388;10.928;2022-10-23T11:35:27;1.30;;;0.80;;
17193;SDS011;8713;48.388;10.928;2022-10-23T11:36:54;0.73;;;0.65;;
17193;SDS011;8713;48.388;10.928;2022-10-23T11:38:17;1.42;;;0.73;;
17193;SDS011;8713;48.388;10.928;2022-10-23T11:39:35;1.55;;;0.80;;
17193;SDS011;8713;48.388;10.928;2022-10-23T11:40:56;1.88;;;0.73;;
17193;SDS011;8713;48.388;10.928;2022-10-23T11:42:12;1.23;;;0.75;;
17193;SDS011;8713;48.388;10.928;2022-10-23T11:43:54;1.25;;;0.85;;
17193;SDS011;8713;48.388;10.928;2022-10-23T11:45:42;2.33;;;0.90;;
17193;SDS011;8713;48.388;10.928;2022-10-23T11:46:46;3.25;;;1.20;;
17193;SDS011;8713;48.388;10.928;2022-10-23T11:48:17;2.80;;;1.50;;
17193;SDS011;8713;48.388;10.928;2022-10-23T11:49:25;2.42;;;1.17;;
17193;SDS011;8713;48.388;10.928;2022-10-23T11:51:59;4.97;;;1.65;;
17193;SDS011;8713;48.388;10.928;2022-10-23T11:54:40;3.85;;;1.48;;
17193;SDS011;8713;48.388;10.928;2022-10-23T11:55:57;5.00;;;1.85;;
17193;SDS011;8713;48.388;10.928;2022-10-23T11:57:20;5.95;;;2.58;;
17193;SDS011;8713;48.388;10.928;2022-10-23T11:58:43;2.60;;;1.45;;
17193;SDS011;8713;48.388;10.928;2022-10-23T11:59:55;6.32;;;2.78;;
17193;SDS011;8713;48.388;10.928;2022-10-23T12:01:25;7.65;;;2.97;;
17193;SDS011;8713;48.388;10.928;2022-10-23T12:02:37;6.63;;;2.50;;
17193;SDS011;8713;48.388;10.928;2022-10-23T12:03:48;5.95;;;1.95;;
17193;SDS011;8713;48.388;10.928;2022-10-23T12:05:46;6.85;;;2.58;;
17193;SDS011;8713;48.388;10.928;2022-10-23T12:06:52;6.97;;;2.60;;
17193;SDS011;8713;48.388;10.928;2022-10-23T12:08:04;6.30;;;2.88;;
17193;SDS011;8713;48.388;10.928;2022-10-23T12:09:29;10.27;;;3.45;;
17193;SDS011;8713;48.388;10.928;2022-10-23T12:10:45;4.18;;;2.13;;
17193;SDS011;8713;48.388;10.928;2022-10-23T12:13:30;6.60;;;2.50;;
17193;SDS011;8713;48.388;10.928;2022-10-23T12:14:43;7.68;;;3.22;;
17193;SDS011;8713;48.388;10.928;2022-10-23T12:15:55;10.95;;;3.45;;
17193;SDS011;8713;48.388;10.928;2022-10-23T12:18:31;14.50;;;3.83;;
17193;SDS011;8713;48.388;10.928;2022-10-23T12:19:44;8.98;;;3.20;;
17193;SDS011;8713;48.388;10.928;2022-10-23T12:21:00;6.78;;;3.83;;
17193;SDS011;8713;48.388;10.928;2022-10-23T12:22:12;12.70;;;3.72;;
17193;SDS011;8713;48.388;10.928;2022-10-23T12:25:02;12.52;;;3.78;;
17193;SDS011;8713;48.388;10.928;2022-10-23T12:31:18;13.13;;;4.68;;
17193;SDS011;8713;48.388;10.928;2022-10-23T12:37:36;20.40;;;5.53;;
17193;SDS011;8713;48.388;10.928;2022-10-23T12:39:26;23.05;;;7.00;;
17193;SDS011;8713;48.388;10.928;2022-10-23T12:40:45;25.80;;;7.13;;
17193;SDS011;8713;48.388;10.928;2022-10-23T12:42:00;27.95;;;9.18;;
17193;SDS011;8713;48.388;10.928;2022-10-23T12:43:23;25.20;;;7.38;;
17193;SDS011;8713;48.388;10.928;2022-10-23T12:44:35;10.43;;;3.78;;
17193;SDS011;8713;48.388;10.928;2022-10-23T12:45:45;9.32;;;3.03;;
17193;SDS011;8713;48.388;10.928;2022-10-23T12:46:58;10.05;;;3.70;;
17193;SDS011;8713;48.388;10.928;2022-10-23T12:48:17;11.50;;;4.45;;
17193;SDS011;8713;48.388;10.928;2022-10-23T12:49:30;15.07;;;4.57;;
17193;SDS011;8713;48.388;10.928;2022-10-23T12:50:41;10.13;;;3.95;;
17193;SDS011;8713;48.388;10.928;2022-10-23T12:52:02;8.60;;;2.92;;
17193;SDS011;8713;48.388;10.928;2022-10-23T12:53:14;6.55;;;2.88;;
17193;SDS011;8713;48.388;10.928;2022-10-23T12:54:26;7.65;;;2.88;;
17193;SDS011;8713;48.388;10.928;2022-10-23T12:55:46;5.03;;;2.65;;
17193;SDS011;8713;48.388;10.928;2022-10-23T12:57:20;2.97;;;1.83;;
17193;SDS011;8713;48.388;10.928;2022-10-23T12:58:32;11.55;;;3.05;;
17193;SDS011;8713;48.388;10.928;2022-10-23T12:59:45;11.77;;;4.05;;